sensor_id;sensor_type;location;lat;lon;timestamp;P1;durP1;ratioP1;P2;durP2;ratioP2
9888;SDS011;4983;42.112;24.738;2023-04-25T00:00:39;1.70;;;1.10;;
9888;SDS011;4983;42.112;24.738;2023-04-25T00:03:06;1.60;;;1.40;;
9888;SDS011;4983;42.112;24.738;2023-04-25T00:05:34;1.57;;;1.30;;
9888;SDS011;4983;42.112;24.738;2023-04-25T00:08:02;1.40;;;1.30;;
9888;SDS011;4983;42.112;24.738;2023-04-25T00:10:30;1.40;;;1.30;;
9888;SDS011;4983;42.112;24.738;2023-04-25T00:12:57;1.40;;;1.30;;
9888;SDS011;4983;42.112;24.738;2023-04-25T00:15:24;1.77;;;1.40;;
9888;SDS011;4983;42.112;24.738;2023-04-25T00:17:51;1.83;;;1.57;;
9888;SDS011;4983;42.112;24.738;2023-04-25T00:20:18;1.40;;;1.30;;
9888;SDS011;4983;42.112;24.738;2023-04-25T00:22:45;2.77;;;1.50;;
9888;SDS011;4983;42.112;24.738;2023-04-25T00:25:13;2.43;;;1.80;;
9888;SDS011;4983;42.112;24.738;2023-04-25T00:27:42;1.80;;;1.37;;
9888;SDS011;4983;42.112;24.738;2023-04-25T00:30:09;2.03;;;1.33;;
9888;SDS011;4983;42.112;24.738;2023-04-25T00:32:36;2.43;;;1.67;;
9888;SDS011;4983;42.112;24.738;2023-04-25T00:35:03;2.53;;;1.63;;
9888;SDS011;4983;42.112;24.738;2023-04-25T00:37:30;1.77;;;1.67;;
9888;SDS011;4983;42.112;24.738;2023-04-25T00:39:57;2.17;;;1.73;;
9888;SDS011;4983;42.112;24.738;2023-04-25T00:42:24;2.53;;;1.50;;
9888;SDS011;4983;42.112;24.738;2023-04-25T00:44:52;1.90;;;1.70;;
9888;SDS011;4983;42.112;24.738;2023-04-25T00:47:19;1.50;;;1.40;;
9888;SDS011;4983;42.112;24.738;2023-04-25T00:49:46;2.43;;;1.80;;
9888;SDS011;4983;42.112;24.738;2023-04-25T00:52:12;2.40;;;2.00;;
9888;SDS011;4983;42.112;24.738;2023-04-25T00:54:39;2.33;;;2.00;;
9888;SDS011;4983;42.112;24.738;2023-04-25T00:57:06;1.90;;;1.70;;
9888;SDS011;4983;42.112;24.738;2023-04-25T00:59:32;2.50;;;1.90;;
9888;SDS011;4983;42.112;24.738;2023-04-25T01:02:01;2.07;;;1.87;;
9888;SDS011;4983;42.112;24.738;2023-04-25T01:04:27;3.27;;;2.00;;
9888;SDS011;4983;42.112;24.738;2023-04-25T01:06:54;2.50;;;2.10;;
9888;SDS011;4983;42.112;24.738;2023-04-25T01:09:21;2.60;;;1.83;;
9888;SDS011;4983;42.112;24.738;2023-04-25T01:11:48;2.00;;;1.70;;
9888;SDS011;4983;42.112;24.738;2023-04-25T01:14:15;2.33;;;1.67;;
9888;SDS011;4983;42.112;24.738;2023-04-25T01:16:42;2.90;;;2.00;;
9888;SDS011;4983;42.112;24.738;2023-04-25T01:19:11;3.63;;;1.90;;
9888;SDS011;4983;42.112;24.738;2023-04-25T01:21:39;2.83;;;2.30;;
9888;SDS011;4983;42.112;24.738;2023-04-25T01:24:06;2.20;;;1.90;;
9888;SDS011;4983;42.112;24.738;2023-04-25T01:26:33;2.10;;;1.90;;
9888;SDS011;4983;42.112;24.738;2023-04-25T01:29:00;4.07;;;2.30;;
9888;SDS011;4983;42.112;24.738;2023-04-25T01:31:27;3.03;;;2.50;;
9888;SDS011;4983;42.112;24.738;2023-04-25T01:33:54;2.77;;;2.40;;
9888;SDS011;4983;42.112;24.738;2023-04-25T01:36:21;3.80;;;2.10;;
9888;SDS011;4983;42.112;24.738;2023-04-25T01:38:49;2.73;;;2.03;;
9888;SDS011;4983;42.112;24.738;2023-04-25T01:41:16;2.70;;;2.40;;
9888;SDS011;4983;42.112;24.738;2023-04-25T01:43:43;3.30;;;2.63;;
9888;SDS011;4983;42.112;24.738;2023-04-25T01:46:10;3.13;;;2.20;;
9888;SDS011;4983;42.112;24.738;2023-04-25T01:48:37;3.33;;;2.63;;
9888;SDS011;4983;42.112;24.738;2023-04-25T01:51:04;3.13;;;2.70;;
9888;SDS011;4983;42.112;24.738;2023-04-25T01:53:30;4.50;;;3.03;;
9888;SDS011;4983;42.112;24.738;2023-04-25T01:55:58;6.53;;;2.93;;
9888;SDS011;4983;42.112;24.738;2023-04-25T01:58:25;3.63;;;2.90;;
9888;SDS011;4983;42.112;24.738;2023-04-25T02:00:52;4.33;;;2.93;;
9888;SDS011;4983;42.112;24.738;2023-04-25T02:03:18;4.70;;;3.07;;
9888;SDS011;4983;42.112;24.738;2023-04-25T02:05:45;4.63;;;3.00;;
9888;SDS011;4983;42.112;24.738;2023-04-25T02:08:13;3.57;;;2.80;;
9888;SDS011;4983;42.112;24.738;2023-04-25T02:10:39;4.10;;;2.80;;
9888;SDS011;4983;42.112;24.738;2023-04-25T02:13:07;3.87;;;2.63;;
9888;SDS011;4983;42.112;24.738;2023-04-25T02:15:34;3.60;;;2.80;;
9888;SDS011;4983;42.112;24.738;2023-04-25T02:18:01;2.93;;;2.57;;
9888;SDS011;4983;42.112;24.738;2023-04-25T02:20:28;3.53;;;2.90;;
9888;SDS011;4983;42.112;24.738;2023-04-25T02:22:57;3.67;;;2.50;;
9888;SDS011;4983;42.112;24.738;2023-04-25T02:25:25;3.03;;;2.73;;
9888;SDS011;4983;42.112;24.738;2023-04-25T02:27:52;2.87;;;2.30;;
9888;SDS011;4983;42.112;24.738;2023-04-25T02:30:20;3.67;;;2.70;;
9888;SDS011;4983;42.112;24.738;2023-04-25T02:32:47;3.43;;;2.90;;
9888;SDS011;4983;42.112;24.738;2023-04-25T02:35:14;3.40;;;2.63;;
9888;SDS011;4983;42.112;24.738;2023-04-25T02:37:41;3.07;;;2.63;;
9888;SDS011;4983;42.112;24.738;2023-04-25T02:40:09;3.40;;;2.70;;
9888;SDS011;4983;42.112;24.738;2023-04-25T02:42:36;5.77;;;3.07;;
9888;SDS011;4983;42.112;24.738;2023-04-25T02:45:02;3.43;;;2.60;;
9888;SDS011;4983;42.112;24.738;2023-04-25T02:47:31;3.60;;;2.90;;
9888;SDS011;4983;42.112;24.738;2023-04-25T02:49:57;3.47;;;2.80;;
9888;SDS011;4983;42.112;24.738;2023-04-25T02:52:24;3.73;;;2.60;;
9888;SDS011;4983;42.112;24.738;2023-04-25T02:54:51;3.47;;;2.70;;
9888;SDS011;4983;42.112;24.738;2023-04-25T02:57:17;3.67;;;2.90;;
9888;SDS011;4983;42.112;24.738;2023-04-25T02:59:44;3.80;;;3.10;;
9888;SDS011;4983;42.112;24.738;2023-04-25T03:02:11;4.40;;;3.20;;
9888;SDS011;4983;42.112;24.738;2023-04-25T03:04:39;4.00;;;3.00;;
9888;SDS011;4983;42.112;24.738;2023-04-25T03:07:06;4.17;;;3.20;;
9888;SDS011;4983;42.112;24.738;2023-04-25T03:09:33;3.87;;;2.80;;
9888;SDS011;4983;42.112;24.738;2023-04-25T03:12:00;3.87;;;3.10;;
9888;SDS011;4983;42.112;24.738;2023-04-25T03:14:27;3.83;;;2.90;;
9888;SDS011;4983;42.112;24.738;2023-04-25T03:16:53;4.20;;;3.20;;
9888;SDS011;4983;42.112;24.738;2023-04-25T03:19:21;5.70;;;3.07;;
9888;SDS011;4983;42.112;24.738;2023-04-25T03:21:49;4.50;;;2.90;;
9888;SDS011;4983;42.112;24.738;2023-04-25T03:24:17;4.97;;;2.90;;
9888;SDS011;4983;42.112;24.738;2023-04-25T03:26:44;4.47;;;3.20;;
9888;SDS011;4983;42.112;24.738;2023-04-25T03:29:11;4.80;;;3.83;;
9888;SDS011;4983;42.112;24.738;2023-04-25T03:31:38;5.47;;;3.63;;
9888;SDS011;4983;42.112;24.738;2023-04-25T03:34:05;6.40;;;3.83;;
9888;SDS011;4983;42.112;24.738;2023-04-25T03:36:32;6.20;;;4.37;;
9888;SDS011;4983;42.112;24.738;2023-04-25T03:39:00;6.40;;;4.60;;
9888;SDS011;4983;42.112;24.738;2023-04-25T03:41:27;5.33;;;4.23;;
9888;SDS011;4983;42.112;24.738;2023-04-25T03:43:55;4.73;;;3.70;;
9888;SDS011;4983;42.112;24.738;2023-04-25T03:46:23;6.03;;;3.90;;
9888;SDS011;4983;42.112;24.738;2023-04-25T03:48:50;4.23;;;3.30;;
9888;SDS011;4983;42.112;24.738;2023-04-25T03:51:17;5.07;;;3.87;;
9888;SDS011;4983;42.112;24.738;2023-04-25T03:53:44;3.83;;;3.13;;
9888;SDS011;4983;42.112;24.738;2023-04-25T03:56:12;3.97;;;3.10;;
9888;SDS011;4983;42.112;24.738;2023-04-25T03:58:38;4.77;;;3.40;;
9888;SDS011;4983;42.112;24.738;2023-04-25T04:01:05;5.63;;;3.30;;
9888;SDS011;4983;42.112;24.738;2023-04-25T04:03:33;5.97;;;3.87;;
9888;SDS011;4983;42.112;24.738;2023-04-25T04:06:00;4.47;;;3.73;;
9888;SDS011;4983;42.112;24.738;2023-04-25T04:08:27;5.07;;;3.50;;
9888;SDS011;4983;42.112;24.738;2023-04-25T04:10:53;3.93;;;3.33;;
9888;SDS011;4983;42.112;24.738;2023-04-25T04:13:22;4.93;;;3.73;;
9888;SDS011;4983;42.112;24.738;2023-04-25T04:15:49;5.13;;;3.87;;
9888;SDS011;4983;42.112;24.738;2023-04-25T04:18:16;6.03;;;3.40;;
9888;SDS011;4983;42.112;24.738;2023-04-25T04:20:43;6.07;;;4.07;;
9888;SDS011;4983;42.112;24.738;2023-04-25T04:23:09;4.97;;;3.73;;
9888;SDS011;4983;42.112;24.738;2023-04-25T04:25:36;6.10;;;3.63;;
9888;SDS011;4983;42.112;24.738;2023-04-25T04:28:03;5.47;;;3.93;;
9888;SDS011;4983;42.112;24.738;2023-04-25T04:30:31;4.97;;;4.00;;
9888;SDS011;4983;42.112;24.738;2023-04-25T04:33:00;5.27;;;3.90;;
9888;SDS011;4983;42.112;24.738;2023-04-25T04:35:27;5.13;;;3.90;;
9888;SDS011;4983;42.112;24.738;2023-04-25T04:37:53;5.40;;;4.10;;
9888;SDS011;4983;42.112;24.738;2023-04-25T04:40:20;8.47;;;6.43;;
9888;SDS011;4983;42.112;24.738;2023-04-25T04:42:47;5.17;;;3.80;;
9888;SDS011;4983;42.112;24.738;2023-04-25T04:45:14;5.67;;;4.20;;
9888;SDS011;4983;42.112;24.738;2023-04-25T04:47:44;5.63;;;4.20;;
9888;SDS011;4983;42.112;24.738;2023-04-25T04:50:11;6.27;;;4.27;;
9888;SDS011;4983;42.112;24.738;2023-04-25T04:52:37;6.80;;;4.93;;
9888;SDS011;4983;42.112;24.738;2023-04-25T04:55:05;6.20;;;4.60;;
9888;SDS011;4983;42.112;24.738;2023-04-25T04:57:32;4.63;;;3.80;;
9888;SDS011;4983;42.112;24.738;2023-04-25T04:59:59;4.63;;;3.63;;
9888;SDS011;4983;42.112;24.738;2023-04-25T05:02:26;4.20;;;3.60;;
9888;SDS011;4983;42.112;24.738;2023-04-25T05:04:55;5.87;;;4.07;;
9888;SDS011;4983;42.112;24.738;2023-04-25T05:07:22;6.20;;;4.20;;
9888;SDS011;4983;42.112;24.738;2023-04-25T05:09:49;7.90;;;5.30;;
9888;SDS011;4983;42.112;24.738;2023-04-25T05:12:15;5.47;;;3.93;;
9888;SDS011;4983;42.112;24.738;2023-04-25T05:14:42;6.97;;;4.20;;
9888;SDS011;4983;42.112;24.738;2023-04-25T05:17:08;5.03;;;3.73;;
9888;SDS011;4983;42.112;24.738;2023-04-25T05:19:35;4.90;;;3.90;;
9888;SDS011;4983;42.112;24.738;2023-04-25T05:22:03;5.43;;;4.63;;
9888;SDS011;4983;42.112;24.738;2023-04-25T05:24:30;6.00;;;4.20;;
9888;SDS011;4983;42.112;24.738;2023-04-25T05:26:56;5.73;;;4.20;;
9888;SDS011;4983;42.112;24.738;2023-04-25T05:29:23;4.53;;;3.60;;
9888;SDS011;4983;42.112;24.738;2023-04-25T05:31:50;4.77;;;3.63;;
9888;SDS011;4983;42.112;24.738;2023-04-25T05:34:17;5.10;;;3.40;;
9888;SDS011;4983;42.112;24.738;2023-04-25T05:36:43;5.40;;;3.60;;
9888;SDS011;4983;42.112;24.738;2023-04-25T05:39:15;6.73;;;3.63;;
9888;SDS011;4983;42.112;24.738;2023-04-25T05:41:41;5.03;;;3.63;;
9888;SDS011;4983;42.112;24.738;2023-04-25T05:44:08;5.03;;;3.67;;
9888;SDS011;4983;42.112;24.738;2023-04-25T05:46:35;4.80;;;3.27;;
9888;SDS011;4983;42.112;24.738;2023-04-25T05:49:01;6.00;;;3.90;;
9888;SDS011;4983;42.112;24.738;2023-04-25T05:51:28;5.30;;;3.97;;
9888;SDS011;4983;42.112;24.738;2023-04-25T05:53:55;5.27;;;4.00;;
9888;SDS011;4983;42.112;24.738;2023-04-25T05:56:23;5.10;;;3.80;;
9888;SDS011;4983;42.112;24.738;2023-04-25T05:58:50;4.23;;;3.30;;
9888;SDS011;4983;42.112;24.738;2023-04-25T06:01:16;4.73;;;3.33;;
9888;SDS011;4983;42.112;24.738;2023-04-25T06:03:43;3.97;;;2.63;;
9888;SDS011;4983;42.112;24.738;2023-04-25T06:06:10;4.20;;;2.90;;
9888;SDS011;4983;42.112;24.738;2023-04-25T06:08:37;3.07;;;2.50;;
9888;SDS011;4983;42.112;24.738;2023-04-25T06:11:05;3.37;;;2.87;;
9888;SDS011;4983;42.112;24.738;2023-04-25T06:13:34;3.07;;;2.70;;
9888;SDS011;4983;42.112;24.738;2023-04-25T06:16:01;2.30;;;2.10;;
9888;SDS011;4983;42.112;24.738;2023-04-25T06:18:27;2.47;;;2.27;;
9888;SDS011;4983;42.112;24.738;2023-04-25T06:20:54;3.30;;;1.97;;
9888;SDS011;4983;42.112;24.738;2023-04-25T06:23:20;2.57;;;2.27;;
9888;SDS011;4983;42.112;24.738;2023-04-25T06:25:47;4.53;;;2.10;;
9888;SDS011;4983;42.112;24.738;2023-04-25T06:28:14;2.77;;;2.43;;
9888;SDS011;4983;42.112;24.738;2023-04-25T06:30:42;2.10;;;1.90;;
9888;SDS011;4983;42.112;24.738;2023-04-25T06:33:09;3.80;;;2.43;;
9888;SDS011;4983;42.112;24.738;2023-04-25T06:35:36;3.23;;;2.40;;
9888;SDS011;4983;42.112;24.738;2023-04-25T06:38:02;3.00;;;1.70;;
9888;SDS011;4983;42.112;24.738;2023-04-25T06:40:29;2.10;;;1.90;;
9888;SDS011;4983;42.112;24.738;2023-04-25T06:42:56;4.40;;;2.03;;
9888;SDS011;4983;42.112;24.738;2023-04-25T06:45:23;2.70;;;2.13;;
9888;SDS011;4983;42.112;24.738;2023-04-25T06:47:51;3.57;;;2.10;;
9888;SDS011;4983;42.112;24.738;2023-04-25T06:50:18;2.43;;;2.00;;
9888;SDS011;4983;42.112;24.738;2023-04-25T06:52:46;3.07;;;1.90;;
9888;SDS011;4983;42.112;24.738;2023-04-25T06:55:13;2.30;;;1.83;;
9888;SDS011;4983;42.112;24.738;2023-04-25T06:57:41;2.47;;;2.10;;
9888;SDS011;4983;42.112;24.738;2023-04-25T07:00:10;2.43;;;2.00;;
9888;SDS011;4983;42.112;24.738;2023-04-25T07:02:38;7.00;;;2.17;;
9888;SDS011;4983;42.112;24.738;2023-04-25T07:05:07;2.67;;;2.40;;
9888;SDS011;4983;42.112;24.738;2023-04-25T07:07:34;2.60;;;2.23;;
9888;SDS011;4983;42.112;24.738;2023-04-25T07:10:00;2.77;;;2.33;;
9888;SDS011;4983;42.112;24.738;2023-04-25T07:12:27;2.43;;;1.97;;
9888;SDS011;4983;42.112;24.738;2023-04-25T07:14:54;2.40;;;2.20;;
9888;SDS011;4983;42.112;24.738;2023-04-25T07:17:21;3.63;;;2.43;;
9888;SDS011;4983;42.112;24.738;2023-04-25T07:19:47;2.40;;;2.20;;
9888;SDS011;4983;42.112;24.738;2023-04-25T07:22:16;2.43;;;2.00;;
9888;SDS011;4983;42.112;24.738;2023-04-25T07:24:43;2.60;;;2.00;;
9888;SDS011;4983;42.112;24.738;2023-04-25T07:27:12;3.10;;;2.40;;
9888;SDS011;4983;42.112;24.738;2023-04-25T07:29:39;3.87;;;2.50;;
9888;SDS011;4983;42.112;24.738;2023-04-25T07:32:05;2.23;;;1.97;;
9888;SDS011;4983;42.112;24.738;2023-04-25T07:34:32;2.63;;;2.13;;
9888;SDS011;4983;42.112;24.738;2023-04-25T07:37:02;2.47;;;2.27;;
9888;SDS011;4983;42.112;24.738;2023-04-25T07:39:30;2.43;;;2.20;;
9888;SDS011;4983;42.112;24.738;2023-04-25T07:41:57;4.53;;;1.77;;
9888;SDS011;4983;42.112;24.738;2023-04-25T07:44:25;3.20;;;2.47;;
9888;SDS011;4983;42.112;24.738;2023-04-25T07:46:52;3.70;;;2.90;;
9888;SDS011;4983;42.112;24.738;2023-04-25T07:49:19;4.30;;;3.37;;
9888;SDS011;4983;42.112;24.738;2023-04-25T07:51:45;4.47;;;3.13;;
9888;SDS011;4983;42.112;24.738;2023-04-25T07:54:13;4.47;;;2.97;;
9888;SDS011;4983;42.112;24.738;2023-04-25T07:56:42;3.73;;;3.17;;
9888;SDS011;4983;42.112;24.738;2023-04-25T07:59:08;3.13;;;2.77;;
9888;SDS011;4983;42.112;24.738;2023-04-25T08:01:36;5.20;;;2.93;;
9888;SDS011;4983;42.112;24.738;2023-04-25T08:04:02;3.70;;;3.00;;
9888;SDS011;4983;42.112;24.738;2023-04-25T08:06:29;3.67;;;2.60;;
9888;SDS011;4983;42.112;24.738;2023-04-25T08:08:56;3.13;;;2.70;;
9888;SDS011;4983;42.112;24.738;2023-04-25T08:11:23;4.87;;;2.73;;
9888;SDS011;4983;42.112;24.738;2023-04-25T08:13:51;4.27;;;2.57;;
9888;SDS011;4983;42.112;24.738;2023-04-25T08:16:18;4.97;;;2.70;;
9888;SDS011;4983;42.112;24.738;2023-04-25T08:18:45;4.93;;;2.67;;
9888;SDS011;4983;42.112;24.738;2023-04-25T08:21:11;5.30;;;2.40;;
9888;SDS011;4983;42.112;24.738;2023-04-25T08:23:38;3.60;;;2.70;;
9888;SDS011;4983;42.112;24.738;2023-04-25T08:26:05;3.03;;;2.60;;
9888;SDS011;4983;42.112;24.738;2023-04-25T08:28:32;3.00;;;2.70;;
9888;SDS011;4983;42.112;24.738;2023-04-25T08:31:00;2.80;;;2.50;;
9888;SDS011;4983;42.112;24.738;2023-04-25T08:33:27;2.63;;;2.20;;
9888;SDS011;4983;42.112;24.738;2023-04-25T08:35:54;2.27;;;1.77;;
9888;SDS011;4983;42.112;24.738;2023-04-25T08:38:20;3.63;;;2.00;;
9888;SDS011;4983;42.112;24.738;2023-04-25T08:40:48;2.47;;;1.80;;
9888;SDS011;4983;42.112;24.738;2023-04-25T08:43:15;3.27;;;2.10;;
9888;SDS011;4983;42.112;24.738;2023-04-25T08:45:44;1.90;;;1.70;;
9888;SDS011;4983;42.112;24.738;2023-04-25T08:48:13;2.23;;;1.80;;
9888;SDS011;4983;42.112;24.738;2023-04-25T08:50:43;2.20;;;1.97;;
9888;SDS011;4983;42.112;24.738;2023-04-25T08:53:12;1.70;;;1.60;;
9888;SDS011;4983;42.112;24.738;2023-04-25T08:55:43;2.03;;;1.83;;
9888;SDS011;4983;42.112;24.738;2023-04-25T08:58:11;2.50;;;2.10;;
9888;SDS011;4983;42.112;24.738;2023-04-25T09:00:37;2.77;;;2.07;;
9888;SDS011;4983;42.112;24.738;2023-04-25T09:03:04;2.30;;;2.10;;
9888;SDS011;4983;42.112;24.738;2023-04-25T09:05:33;2.07;;;1.73;;
9888;SDS011;4983;42.112;24.738;2023-04-25T09:08:00;2.30;;;2.10;;
9888;SDS011;4983;42.112;24.738;2023-04-25T09:10:26;1.60;;;1.50;;
9888;SDS011;4983;42.112;24.738;2023-04-25T09:13:03;2.20;;;1.80;;
9888;SDS011;4983;42.112;24.738;2023-04-25T09:15:30;1.60;;;1.50;;
9888;SDS011;4983;42.112;24.738;2023-04-25T09:17:57;2.10;;;1.80;;
9888;SDS011;4983;42.112;24.738;2023-04-25T09:20:25;1.63;;;1.53;;
9888;SDS011;4983;42.112;24.738;2023-04-25T09:23:02;2.53;;;2.03;;
9888;SDS011;4983;42.112;24.738;2023-04-25T09:25:33;1.90;;;1.80;;
9888;SDS011;4983;42.112;24.738;2023-04-25T09:28:03;2.30;;;1.67;;
9888;SDS011;4983;42.112;24.738;2023-04-25T09:30:30;4.00;;;2.00;;
9888;SDS011;4983;42.112;24.738;2023-04-25T09:33:03;2.17;;;1.97;;
9888;SDS011;4983;42.112;24.738;2023-04-25T09:35:32;2.00;;;1.60;;
9888;SDS011;4983;42.112;24.738;2023-04-25T09:38:02;1.87;;;1.73;;
9888;SDS011;4983;42.112;24.738;2023-04-25T09:40:33;2.43;;;1.60;;
9888;SDS011;4983;42.112;24.738;2023-04-25T09:43:00;2.10;;;1.90;;
9888;SDS011;4983;42.112;24.738;2023-04-25T09:45:29;2.33;;;1.90;;
9888;SDS011;4983;42.112;24.738;2023-04-25T09:47:57;2.20;;;2.00;;
9888;SDS011;4983;42.112;24.738;2023-04-25T09:50:29;2.23;;;1.70;;
9888;SDS011;4983;42.112;24.738;2023-04-25T09:53:04;7.90;;;2.30;;
9888;SDS011;4983;42.112;24.738;2023-04-25T09:55:31;1.83;;;1.70;;
9888;SDS011;4983;42.112;24.738;2023-04-25T09:58:01;2.23;;;2.03;;
9888;SDS011;4983;42.112;24.738;2023-04-25T10:00:30;2.40;;;1.93;;
9888;SDS011;4983;42.112;24.738;2023-04-25T10:02:58;1.70;;;1.60;;
9888;SDS011;4983;42.112;24.738;2023-04-25T10:05:26;1.87;;;1.70;;
9888;SDS011;4983;42.112;24.738;2023-04-25T10:07:54;1.70;;;1.60;;
9888;SDS011;4983;42.112;24.738;2023-04-25T10:10:22;2.00;;;1.80;;
9888;SDS011;4983;42.112;24.738;2023-04-25T10:12:53;1.87;;;1.60;;
9888;SDS011;4983;42.112;24.738;2023-04-25T10:15:22;1.70;;;1.60;;
9888;SDS011;4983;42.112;24.738;2023-04-25T10:17:51;1.70;;;1.50;;
9888;SDS011;4983;42.112;24.738;2023-04-25T10:20:18;1.60;;;1.50;;
9888;SDS011;4983;42.112;24.738;2023-04-25T10:22:45;1.60;;;1.50;;
9888;SDS011;4983;42.112;24.738;2023-04-25T10:25:13;2.40;;;1.83;;
9888;SDS011;4983;42.112;24.738;2023-04-25T10:27:42;2.77;;;1.43;;
9888;SDS011;4983;42.112;24.738;2023-04-25T10:30:10;1.80;;;1.70;;
9888;SDS011;4983;42.112;24.738;2023-04-25T10:32:38;1.50;;;1.40;;
9888;SDS011;4983;42.112;24.738;2023-04-25T10:35:11;1.40;;;1.30;;
9888;SDS011;4983;42.112;24.738;2023-04-25T10:37:38;1.90;;;1.50;;
9888;SDS011;4983;42.112;24.738;2023-04-25T10:40:08;1.50;;;1.40;;
9888;SDS011;4983;42.112;24.738;2023-04-25T10:42:35;1.57;;;1.40;;
9888;SDS011;4983;42.112;24.738;2023-04-25T10:45:04;1.60;;;1.50;;
9888;SDS011;4983;42.112;24.738;2023-04-25T10:47:34;1.67;;;1.57;;
9888;SDS011;4983;42.112;24.738;2023-04-25T10:50:04;1.40;;;1.30;;
9888;SDS011;4983;42.112;24.738;2023-04-25T10:52:32;1.67;;;1.57;;
9888;SDS011;4983;42.112;24.738;2023-04-25T10:54:59;1.40;;;1.30;;
9888;SDS011;4983;42.112;24.738;2023-04-25T10:57:26;1.50;;;1.40;;
9888;SDS011;4983;42.112;24.738;2023-04-25T10:59:52;2.00;;;1.47;;
9888;SDS011;4983;42.112;24.738;2023-04-25T11:02:20;1.20;;;1.10;;
9888;SDS011;4983;42.112;24.738;2023-04-25T11:04:47;1.43;;;1.23;;
9888;SDS011;4983;42.112;24.738;2023-04-25T11:07:16;1.63;;;1.27;;
9888;SDS011;4983;42.112;24.738;2023-04-25T11:09:46;1.50;;;1.30;;
9888;SDS011;4983;42.112;24.738;2023-04-25T11:12:13;1.60;;;1.40;;
9888;SDS011;4983;42.112;24.738;2023-04-25T11:14:40;1.30;;;1.20;;
9888;SDS011;4983;42.112;24.738;2023-04-25T11:17:07;1.60;;;1.50;;
9888;SDS011;4983;42.112;24.738;2023-04-25T11:19:35;1.60;;;1.50;;
9888;SDS011;4983;42.112;24.738;2023-04-25T11:22:02;3.97;;;1.70;;
9888;SDS011;4983;42.112;24.738;2023-04-25T11:24:31;1.90;;;1.50;;
9888;SDS011;4983;42.112;24.738;2023-04-25T11:26:58;3.43;;;1.57;;
9888;SDS011;4983;42.112;24.738;2023-04-25T11:29:26;1.53;;;1.30;;
9888;SDS011;4983;42.112;24.738;2023-04-25T11:31:53;1.53;;;1.43;;
9888;SDS011;4983;42.112;24.738;2023-04-25T11:34:21;2.33;;;1.77;;
9888;SDS011;4983;42.112;24.738;2023-04-25T11:36:49;3.20;;;1.40;;
9888;SDS011;4983;42.112;24.738;2023-04-25T11:39:17;1.70;;;1.60;;
9888;SDS011;4983;42.112;24.738;2023-04-25T11:41:44;4.33;;;1.90;;
9888;SDS011;4983;42.112;24.738;2023-04-25T11:44:11;2.33;;;1.53;;
9888;SDS011;4983;42.112;24.738;2023-04-25T11:46:38;1.50;;;1.40;;
9888;SDS011;4983;42.112;24.738;2023-04-25T11:49:05;2.30;;;1.57;;
9888;SDS011;4983;42.112;24.738;2023-04-25T11:51:37;2.73;;;1.60;;
9888;SDS011;4983;42.112;24.738;2023-04-25T11:54:06;4.27;;;1.53;;
9888;SDS011;4983;42.112;24.738;2023-04-25T11:56:33;2.47;;;1.70;;
9888;SDS011;4983;42.112;24.738;2023-04-25T11:59:00;1.70;;;1.60;;
9888;SDS011;4983;42.112;24.738;2023-04-25T12:01:28;1.57;;;1.47;;
9888;SDS011;4983;42.112;24.738;2023-04-25T12:03:55;2.67;;;1.83;;
9888;SDS011;4983;42.112;24.738;2023-04-25T12:06:25;3.00;;;2.10;;
9888;SDS011;4983;42.112;24.738;2023-04-25T12:09:00;1.93;;;1.50;;
9888;SDS011;4983;42.112;24.738;2023-04-25T12:11:28;1.77;;;1.67;;
9888;SDS011;4983;42.112;24.738;2023-04-25T12:13:55;2.00;;;1.80;;
9888;SDS011;4983;42.112;24.738;2023-04-25T12:16:22;9.13;;;2.63;;
9888;SDS011;4983;42.112;24.738;2023-04-25T12:18:51;1.87;;;1.63;;
9888;SDS011;4983;42.112;24.738;2023-04-25T12:21:18;1.67;;;1.57;;
9888;SDS011;4983;42.112;24.738;2023-04-25T12:23:46;2.73;;;1.67;;
9888;SDS011;4983;42.112;24.738;2023-04-25T12:26:13;3.47;;;1.57;;
9888;SDS011;4983;42.112;24.738;2023-04-25T12:28:44;1.60;;;1.50;;
9888;SDS011;4983;42.112;24.738;2023-04-25T12:31:12;3.50;;;1.80;;
9888;SDS011;4983;42.112;24.738;2023-04-25T12:33:40;1.77;;;1.67;;
9888;SDS011;4983;42.112;24.738;2023-04-25T12:36:08;1.80;;;1.50;;
9888;SDS011;4983;42.112;24.738;2023-04-25T12:38:36;3.30;;;1.90;;
9888;SDS011;4983;42.112;24.738;2023-04-25T12:41:03;2.70;;;1.63;;
9888;SDS011;4983;42.112;24.738;2023-04-25T12:43:30;1.70;;;1.60;;
9888;SDS011;4983;42.112;24.738;2023-04-25T12:45:58;3.10;;;1.97;;
9888;SDS011;4983;42.112;24.738;2023-04-25T12:48:27;2.20;;;1.90;;
9888;SDS011;4983;42.112;24.738;2023-04-25T12:50:54;2.20;;;1.80;;
9888;SDS011;4983;42.112;24.738;2023-04-25T12:53:22;2.60;;;2.00;;
9888;SDS011;4983;42.112;24.738;2023-04-25T12:55:49;1.70;;;1.60;;
9888;SDS011;4983;42.112;24.738;2023-04-25T12:58:16;2.00;;;1.80;;
9888;SDS011;4983;42.112;24.738;2023-04-25T13:00:43;1.90;;;1.80;;
9888;SDS011;4983;42.112;24.738;2023-04-25T13:03:11;2.23;;;1.90;;
9888;SDS011;4983;42.112;24.738;2023-04-25T13:05:38;2.00;;;1.63;;
9888;SDS011;4983;42.112;24.738;2023-04-25T13:08:05;2.00;;;1.60;;
9888;SDS011;4983;42.112;24.738;2023-04-25T13:10:32;1.70;;;1.60;;
9888;SDS011;4983;42.112;24.738;2023-04-25T13:13:01;1.57;;;1.47;;
9888;SDS011;4983;42.112;24.738;2023-04-25T13:15:28;5.23;;;2.10;;
9888;SDS011;4983;42.112;24.738;2023-04-25T13:17:55;3.40;;;1.60;;
9888;SDS011;4983;42.112;24.738;2023-04-25T13:20:23;2.03;;;1.83;;
9888;SDS011;4983;42.112;24.738;2023-04-25T13:22:50;2.23;;;1.20;;
9888;SDS011;4983;42.112;24.738;2023-04-25T13:25:17;3.20;;;1.30;;
9888;SDS011;4983;42.112;24.738;2023-04-25T13:27:44;1.40;;;1.30;;
9888;SDS011;4983;42.112;24.738;2023-04-25T13:30:11;2.30;;;1.30;;
9888;SDS011;4983;42.112;24.738;2023-04-25T13:32:39;1.30;;;1.20;;
9888;SDS011;4983;42.112;24.738;2023-04-25T13:35:08;1.40;;;1.30;;
9888;SDS011;4983;42.112;24.738;2023-04-25T13:37:38;1.60;;;1.30;;
9888;SDS011;4983;42.112;24.738;2023-04-25T13:40:07;1.57;;;1.47;;
9888;SDS011;4983;42.112;24.738;2023-04-25T13:42:37;1.00;;;1.00;;
9888;SDS011;4983;42.112;24.738;2023-04-25T13:45:05;1.80;;;1.33;;
9888;SDS011;4983;42.112;24.738;2023-04-25T13:47:34;0.87;;;0.87;;
9888;SDS011;4983;42.112;24.738;2023-04-25T13:50:01;1.20;;;1.10;;
9888;SDS011;4983;42.112;24.738;2023-04-25T13:52:30;1.30;;;1.20;;
9888;SDS011;4983;42.112;24.738;2023-04-25T13:54:58;1.30;;;1.10;;
9888;SDS011;4983;42.112;24.738;2023-04-25T13:57:26;2.27;;;1.57;;
9888;SDS011;4983;42.112;24.738;2023-04-25T13:59:53;1.40;;;1.30;;
9888;SDS011;4983;42.112;24.738;2023-04-25T14:02:19;1.53;;;1.03;;
9888;SDS011;4983;42.112;24.738;2023-04-25T14:04:46;1.13;;;1.00;;
9888;SDS011;4983;42.112;24.738;2023-04-25T14:07:13;1.33;;;1.10;;
9888;SDS011;4983;42.112;24.738;2023-04-25T14:09:42;1.57;;;1.13;;
9888;SDS011;4983;42.112;24.738;2023-04-25T14:12:11;0.83;;;0.83;;
9888;SDS011;4983;42.112;24.738;2023-04-25T14:14:38;1.17;;;1.07;;
9888;SDS011;4983;42.112;24.738;2023-04-25T14:17:05;1.10;;;1.00;;
9888;SDS011;4983;42.112;24.738;2023-04-25T14:19:32;1.20;;;1.10;;
9888;SDS011;4983;42.112;24.738;2023-04-25T14:21:59;3.17;;;1.20;;
9888;SDS011;4983;42.112;24.738;2023-04-25T14:24:26;6.70;;;1.40;;
9888;SDS011;4983;42.112;24.738;2023-04-25T14:26:53;6.97;;;1.70;;
9888;SDS011;4983;42.112;24.738;2023-04-25T14:29:21;1.30;;;1.00;;
9888;SDS011;4983;42.112;24.738;2023-04-25T14:31:49;1.13;;;1.03;;
9888;SDS011;4983;42.112;24.738;2023-04-25T14:34:15;1.77;;;1.20;;
9888;SDS011;4983;42.112;24.738;2023-04-25T14:36:43;1.67;;;1.00;;
9888;SDS011;4983;42.112;24.738;2023-04-25T14:39:10;1.73;;;1.10;;
9888;SDS011;4983;42.112;24.738;2023-04-25T14:41:37;1.23;;;1.13;;
9888;SDS011;4983;42.112;24.738;2023-04-25T14:44:04;1.03;;;0.93;;
9888;SDS011;4983;42.112;24.738;2023-04-25T14:46:32;0.90;;;0.90;;
9888;SDS011;4983;42.112;24.738;2023-04-25T14:48:59;1.43;;;1.33;;
9888;SDS011;4983;42.112;24.738;2023-04-25T14:51:26;2.13;;;1.20;;
9888;SDS011;4983;42.112;24.738;2023-04-25T14:53:52;1.67;;;1.10;;
9888;SDS011;4983;42.112;24.738;2023-04-25T14:56:19;1.40;;;1.30;;
9888;SDS011;4983;42.112;24.738;2023-04-25T14:58:46;1.10;;;1.00;;
9888;SDS011;4983;42.112;24.738;2023-04-25T15:01:12;1.20;;;1.10;;